OIII/THR METAR and TAF weather

Enter ICAO airport designator
Station Type Date Time Source
OIII METAR 2018/12/10 02:00 UTC NOAA

OIII 100200Z 28004KT 9999 FEW040 SCT090 07/00 Q1018 A3007 NOSIG


Station Type Date Time Source
OIII Decoded METAR 2018/12/10 02:00 UTC NOAA

Tehran-Mehrabad, Iran (OIII) 35-41N 051-21E 1191M
Dec 09, 2018 - 09:00 PM EST / 2018.12.10 0200 UTC
Wind: from the W (280 degrees) at 5 MPH (4 KT):0
Visibility: greater than 7 mile(s):0
Sky conditions: partly cloudy
Temperature: 44 F (7 C)
Dew Point: 32 F (0 C)
Relative Humidity: 60%
Pressure (altimeter): 30.07 in. Hg (1018 hPa)
ob: OIII 100200Z 28004KT 9999 FEW040 SCT090 07/00 Q1018 A3007 NOSIG
cycle: 2

Station Type Date Time Source
OIII TAF 2018/12/10 00:01 UTC NOAA

TAF OIII 092300Z 1000/1106 27004MPS FEW040
TEMPO 1012/1018 32008MPS 7000 FEW030 FEW035CB SCT100


Example: see airport list